sensor_id;sensor_type;location;lat;lon;timestamp;pressure;altitude;pressure_sealevel;temperature;humidity
22582;BME280;47125;48.542;9.052;2024-02-14T00:05:28;96347.75;;;6.34;67.44
22582;BME280;47125;48.542;9.052;2024-02-14T00:15:32;96356.28;;;6.29;67.50
22582;BME280;47125;48.542;9.052;2024-02-14T00:25:35;96355.09;;;6.45;67.10
22582;BME280;47125;48.542;9.052;2024-02-14T00:35:38;96352.25;;;6.40;67.59
22582;BME280;47125;48.542;9.052;2024-02-14T00:45:41;96347.75;;;6.47;66.95
22582;BME280;47125;48.542;9.052;2024-02-14T00:55:45;96349.19;;;6.43;67.69
22582;BME280;47125;48.542;9.052;2024-02-14T01:05:47;96345.69;;;6.49;68.41
22582;BME280;47125;48.542;9.052;2024-02-14T01:15:51;96353.25;;;6.45;71.60
22582;BME280;47125;48.542;9.052;2024-02-14T01:25:54;96356.31;;;6.42;71.72
22582;BME280;47125;48.542;9.052;2024-02-14T01:35:58;96348.34;;;6.36;73.47
22582;BME280;47125;48.542;9.052;2024-02-14T01:46:03;96335.91;;;6.36;74.20
22582;BME280;47125;48.542;9.052;2024-02-14T01:56:08;96346.13;;;6.39;75.93
22582;BME280;47125;48.542;9.052;2024-02-14T02:06:10;96335.09;;;6.42;73.93
22582;BME280;47125;48.542;9.052;2024-02-14T02:16:14;96333.88;;;6.58;73.75
22582;BME280;47125;48.542;9.052;2024-02-14T02:26:18;96325.91;;;6.58;72.61
22582;BME280;47125;48.542;9.052;2024-02-14T02:36:21;96314.09;;;6.54;73.55
22582;BME280;47125;48.542;9.052;2024-02-14T02:46:26;96295.72;;;6.46;75.29
22582;BME280;47125;48.542;9.052;2024-02-14T02:56:29;96278.78;;;6.53;75.22
22582;BME280;47125;48.542;9.052;2024-02-14T03:06:33;96284.69;;;6.55;73.51
22582;BME280;47125;48.542;9.052;2024-02-14T03:16:35;96268.97;;;6.60;73.62
22582;BME280;47125;48.542;9.052;2024-02-14T03:26:39;96286.53;;;6.48;74.20
22582;BME280;47125;48.542;9.052;2024-02-14T03:36:43;96313.81;;;6.16;73.81
22582;BME280;47125;48.542;9.052;2024-02-14T03:46:47;96310.81;;;6.39;72.89
22582;BME280;47125;48.542;9.052;2024-02-14T03:56:49;96324.09;;;6.45;73.09
22582;BME280;47125;48.542;9.052;2024-02-14T04:06:54;96326.94;;;6.50;73.08
22582;BME280;47125;48.542;9.052;2024-02-14T04:16:56;96331.00;;;6.53;72.19
22582;BME280;47125;48.542;9.052;2024-02-14T04:27:00;96313.47;;;6.45;71.37
22582;BME280;47125;48.542;9.052;2024-02-14T04:37:04;96323.22;;;6.25;72.59
22582;BME280;47125;48.542;9.052;2024-02-14T04:47:12;96344.69;;;6.30;71.86
22582;BME280;47125;48.542;9.052;2024-02-14T04:57:16;96364.06;;;6.31;71.32
22582;BME280;47125;48.542;9.052;2024-02-14T05:07:21;96366.09;;;6.35;71.12
22582;BME280;47125;48.542;9.052;2024-02-14T05:17:23;96364.06;;;6.50;70.65
22582;BME280;47125;48.542;9.052;2024-02-14T05:27:27;96356.31;;;6.62;70.68
22582;BME280;47125;48.542;9.052;2024-02-14T05:37:30;96355.31;;;6.63;69.90
22582;BME280;47125;48.542;9.052;2024-02-14T05:47:33;96365.31;;;6.68;69.67
22582;BME280;47125;48.542;9.052;2024-02-14T05:57:36;96351.66;;;6.57;69.62
22582;BME280;47125;48.542;9.052;2024-02-14T06:07:40;96348.16;;;6.70;69.23
22582;BME280;47125;48.542;9.052;2024-02-14T06:17:42;96347.16;;;6.78;68.53
22582;BME280;47125;48.542;9.052;2024-02-14T06:27:46;96349.97;;;6.43;69.78
22582;BME280;47125;48.542;9.052;2024-02-14T06:37:49;96373.84;;;6.43;69.92
22582;BME280;47125;48.542;9.052;2024-02-14T06:48:05;96362.88;;;6.73;68.39
22582;BME280;47125;48.542;9.052;2024-02-14T06:58:08;96369.59;;;6.75;69.12
22582;BME280;47125;48.542;9.052;2024-02-14T07:08:11;96374.09;;;6.81;69.02
22582;BME280;47125;48.542;9.052;2024-02-14T07:18:14;96370.19;;;7.03;68.74
22582;BME280;47125;48.542;9.052;2024-02-14T07:28:18;96392.03;;;7.18;68.55
22582;BME280;47125;48.542;9.052;2024-02-14T07:38:20;96398.38;;;7.24;68.38
22582;BME280;47125;48.542;9.052;2024-02-14T07:48:25;96396.03;;;7.67;67.79
22582;BME280;47125;48.542;9.052;2024-02-14T07:58:28;96414.22;;;7.70;68.54
22582;BME280;47125;48.542;9.052;2024-02-14T08:08:32;96425.66;;;7.77;67.74
22582;BME280;47125;48.542;9.052;2024-02-14T08:18:34;96426.00;;;7.94;68.23
22582;BME280;47125;48.542;9.052;2024-02-14T08:28:39;96425.97;;;8.13;67.90
22582;BME280;47125;48.542;9.052;2024-02-14T08:38:43;96442.06;;;8.32;68.44
22582;BME280;47125;48.542;9.052;2024-02-14T08:48:46;96438.69;;;8.56;68.29
22582;BME280;47125;48.542;9.052;2024-02-14T08:58:50;96450.13;;;8.88;67.36
22582;BME280;47125;48.542;9.052;2024-02-14T09:08:55;96461.63;;;8.88;67.67
22582;BME280;47125;48.542;9.052;2024-02-14T09:18:57;96461.84;;;9.11;68.05
22582;BME280;47125;48.542;9.052;2024-02-14T09:29:01;96472.25;;;9.19;68.13
22582;BME280;47125;48.542;9.052;2024-02-14T09:39:03;96480.53;;;9.36;67.76
22582;BME280;47125;48.542;9.052;2024-02-14T09:49:10;96471.28;;;9.63;66.79
22582;BME280;47125;48.542;9.052;2024-02-14T09:59:14;96480.78;;;9.77;67.65
22582;BME280;47125;48.542;9.052;2024-02-14T10:09:19;96463.09;;;10.01;69.16
22582;BME280;47125;48.542;9.052;2024-02-14T10:19:22;96467.94;;;10.29;70.35
22582;BME280;47125;48.542;9.052;2024-02-14T10:29:27;96443.75;;;10.72;69.94
22582;BME280;47125;48.542;9.052;2024-02-14T10:39:29;96447.56;;;11.05;70.16
22582;BME280;47125;48.542;9.052;2024-02-14T10:49:34;96439.34;;;11.19;71.09
22582;BME280;47125;48.542;9.052;2024-02-14T10:59:40;96435.09;;;11.52;70.26
22582;BME280;47125;48.542;9.052;2024-02-14T11:09:46;96451.63;;;11.96;70.16
22582;BME280;47125;48.542;9.052;2024-02-14T11:19:49;96434.91;;;12.29;68.67
22582;BME280;47125;48.542;9.052;2024-02-14T11:29:54;96440.09;;;12.47;68.29
22582;BME280;47125;48.542;9.052;2024-02-14T11:39:57;96457.41;;;12.67;67.38
22582;BME280;47125;48.542;9.052;2024-02-14T11:50:01;96442.06;;;13.69;63.01
22582;BME280;47125;48.542;9.052;2024-02-14T12:00:05;96437.63;;;13.97;62.76
22582;BME280;47125;48.542;9.052;2024-02-14T12:10:09;96452.25;;;14.44;60.42
22582;BME280;47125;48.542;9.052;2024-02-14T12:20:14;96441.34;;;14.77;59.72
22582;BME280;47125;48.542;9.052;2024-02-14T12:30:18;96449.78;;;14.21;61.74
22582;BME280;47125;48.542;9.052;2024-02-14T12:40:23;96448.94;;;13.82;63.16
22582;BME280;47125;48.542;9.052;2024-02-14T12:50:27;96429.25;;;13.76;64.11
22582;BME280;47125;48.542;9.052;2024-02-14T13:00:30;96426.59;;;13.60;65.35
22582;BME280;47125;48.542;9.052;2024-02-14T13:10:34;96423.66;;;13.61;65.56
22582;BME280;47125;48.542;9.052;2024-02-14T13:20:36;96445.63;;;13.58;65.76
22582;BME280;47125;48.542;9.052;2024-02-14T13:30:41;96422.88;;;13.44;66.63
22582;BME280;47125;48.542;9.052;2024-02-14T13:40:44;96414.88;;;13.66;65.67
22582;BME280;47125;48.542;9.052;2024-02-14T13:50:48;96411.00;;;13.57;66.53
22582;BME280;47125;48.542;9.052;2024-02-14T14:00:52;96426.78;;;13.37;67.15
22582;BME280;47125;48.542;9.052;2024-02-14T14:10:57;96421.56;;;13.30;67.45
22582;BME280;47125;48.542;9.052;2024-02-14T14:21:00;96418.81;;;13.42;67.58
22582;BME280;47125;48.542;9.052;2024-02-14T14:31:04;96434.56;;;13.38;67.76
22582;BME280;47125;48.542;9.052;2024-02-14T14:41:06;96428.50;;;13.43;67.44
22582;BME280;47125;48.542;9.052;2024-02-14T14:51:10;96411.66;;;13.47;67.44
22582;BME280;47125;48.542;9.052;2024-02-14T15:01:13;96430.03;;;13.39;67.22
22582;BME280;47125;48.542;9.052;2024-02-14T15:11:17;96409.22;;;13.46;67.29
22582;BME280;47125;48.542;9.052;2024-02-14T15:21:22;96422.94;;;13.33;67.32
22582;BME280;47125;48.542;9.052;2024-02-14T15:31:25;96405.81;;;13.34;67.73
22582;BME280;47125;48.542;9.052;2024-02-14T15:41:45;96421.88;;;13.17;68.49
22582;BME280;47125;48.542;9.052;2024-02-14T15:51:49;96420.97;;;13.11;68.26
22582;BME280;47125;48.542;9.052;2024-02-14T16:01:52;96408.50;;;13.05;68.88
22582;BME280;47125;48.542;9.052;2024-02-14T16:11:56;96421.84;;;13.00;69.08
22582;BME280;47125;48.542;9.052;2024-02-14T16:21:59;96427.84;;;12.91;69.42
22582;BME280;47125;48.542;9.052;2024-02-14T16:32:17;96416.28;;;12.90;69.91
22582;BME280;47125;48.542;9.052;2024-02-14T16:42:20;96426.25;;;12.78;70.66
22582;BME280;47125;48.542;9.052;2024-02-14T16:52:24;96431.19;;;12.69;71.50
22582;BME280;47125;48.542;9.052;2024-02-14T17:02:26;96427.84;;;12.62;71.94
22582;BME280;47125;48.542;9.052;2024-02-14T17:12:30;96431.00;;;12.59;72.48
22582;BME280;47125;48.542;9.052;2024-02-14T17:22:34;96447.41;;;12.63;72.38
22582;BME280;47125;48.542;9.052;2024-02-14T17:32:38;96449.41;;;12.56;73.06
22582;BME280;47125;48.542;9.052;2024-02-14T17:42:47;96459.47;;;12.49;73.50
22582;BME280;47125;48.542;9.052;2024-02-14T17:52:51;96455.56;;;12.56;73.72
22582;BME280;47125;48.542;9.052;2024-02-14T18:02:53;96455.13;;;12.48;74.68
22582;BME280;47125;48.542;9.052;2024-02-14T18:12:57;96451.94;;;12.34;75.48
22582;BME280;47125;48.542;9.052;2024-02-14T18:23:00;96450.72;;;12.42;75.65
22582;BME280;47125;48.542;9.052;2024-02-14T18:33:04;96462.78;;;12.28;76.73
22582;BME280;47125;48.542;9.052;2024-02-14T18:43:12;96464.16;;;12.30;77.06
22582;BME280;47125;48.542;9.052;2024-02-14T18:53:16;96471.03;;;12.14;78.23
22582;BME280;47125;48.542;9.052;2024-02-14T19:03:18;96456.38;;;12.05;78.77
22582;BME280;47125;48.542;9.052;2024-02-14T19:13:22;96450.34;;;12.10;78.42
22582;BME280;47125;48.542;9.052;2024-02-14T19:23:24;96457.31;;;12.11;78.15
22582;BME280;47125;48.542;9.052;2024-02-14T19:33:29;96454.84;;;12.21;77.91
22582;BME280;47125;48.542;9.052;2024-02-14T19:43:32;96439.53;;;12.17;78.28
22582;BME280;47125;48.542;9.052;2024-02-14T19:53:42;96437.50;;;12.24;78.22
22582;BME280;47125;48.542;9.052;2024-02-14T20:03:45;96439.59;;;12.22;78.04
22582;BME280;47125;48.542;9.052;2024-02-14T20:13:49;96451.72;;;12.12;78.14
22582;BME280;47125;48.542;9.052;2024-02-14T20:23:51;96436.34;;;12.08;78.37
22582;BME280;47125;48.542;9.052;2024-02-14T20:33:55;96447.31;;;12.06;78.58
22582;BME280;47125;48.542;9.052;2024-02-14T20:43:58;96443.00;;;12.05;78.22
22582;BME280;47125;48.542;9.052;2024-02-14T20:54:02;96433.38;;;12.04;77.45
22582;BME280;47125;48.542;9.052;2024-02-14T21:04:06;96426.72;;;12.07;76.94
22582;BME280;47125;48.542;9.052;2024-02-14T21:14:10;96428.47;;;12.01;77.07
22582;BME280;47125;48.542;9.052;2024-02-14T21:24:12;96432.88;;;12.19;75.86
22582;BME280;47125;48.542;9.052;2024-02-14T21:34:17;96423.91;;;12.02;76.33
22582;BME280;47125;48.542;9.052;2024-02-14T21:44:19;96438.38;;;11.89;76.95
22582;BME280;47125;48.542;9.052;2024-02-14T21:54:23;96422.91;;;11.91;76.25
22582;BME280;47125;48.542;9.052;2024-02-14T22:04:26;96425.22;;;11.88;76.26
22582;BME280;47125;48.542;9.052;2024-02-14T22:14:30;96439.66;;;11.87;76.50
22582;BME280;47125;48.542;9.052;2024-02-14T22:24:33;96437.59;;;11.77;76.84
22582;BME280;47125;48.542;9.052;2024-02-14T22:34:37;96427.78;;;11.94;76.12
22582;BME280;47125;48.542;9.052;2024-02-14T22:44:40;96427.78;;;11.94;76.26
22582;BME280;47125;48.542;9.052;2024-02-14T22:54:44;96434.44;;;11.92;76.12
22582;BME280;47125;48.542;9.052;2024-02-14T23:04:46;96429.75;;;11.87;76.58
22582;BME280;47125;48.542;9.052;2024-02-14T23:14:50;96423.25;;;11.95;75.73
22582;BME280;47125;48.542;9.052;2024-02-14T23:24:53;96404.72;;;11.93;75.63
22582;BME280;47125;48.542;9.052;2024-02-14T23:34:58;96408.94;;;11.78;76.32
22582;BME280;47125;48.542;9.052;2024-02-14T23:45:01;96425.81;;;11.78;76.63
22582;BME280;47125;48.542;9.052;2024-02-14T23:55:05;96434.91;;;11.77;76.87
